createdAt,value
2019-04-19T00:00:28.727Z,15.86
2019-04-19T00:01:02.603Z,15.9
2019-04-19T00:01:25.275Z,15.88
2019-04-19T00:02:01.912Z,15.77
2019-04-19T00:02:33.158Z,15.82
2019-04-19T00:02:58.149Z,15.77
2019-04-19T00:03:31.060Z,15.76
2019-04-19T00:04:04.626Z,15.75
2019-04-19T00:04:29.312Z,15.7
2019-04-19T00:05:00.422Z,15.75
2019-04-19T00:05:30.643Z,15.72
2019-04-19T00:05:58.081Z,15.68
2019-04-19T00:06:31.548Z,15.67
2019-04-19T00:07:06.808Z,15.75
2019-04-19T00:07:29.284Z,15.68
2019-04-19T00:08:15.158Z,15.72
2019-04-19T00:08:38.970Z,15.62
2019-04-19T00:09:12.781Z,15.65
2019-04-19T00:09:41.283Z,15.62
2019-04-19T00:10:05.664Z,15.59
2019-04-19T00:10:38.283Z,15.64
2019-04-19T00:11:11.544Z,15.52
2019-04-19T00:11:39.997Z,15.55
2019-04-19T00:12:17.891Z,15.58
2019-04-19T00:12:42.327Z,15.67
2019-04-19T00:13:07.432Z,15.51
2019-04-19T00:13:34.586Z,15.55
2019-04-19T00:14:02.692Z,15.59
2019-04-19T00:14:31.608Z,15.52
2019-04-19T00:15:01.262Z,15.57
2019-04-19T00:15:29.371Z,15.55
2019-04-19T00:15:58.427Z,15.55
2019-04-19T00:16:27.814Z,15.54
2019-04-19T00:16:57.465Z,15.52
2019-04-19T00:17:29.844Z,15.51
2019-04-19T00:17:59.555Z,15.49
2019-04-19T00:18:26.329Z,15.51
2019-04-19T00:19:19.457Z,15.47
2019-04-19T00:19:44.222Z,15.4
2019-04-19T00:20:21.779Z,15.52
2019-04-19T00:20:42.913Z,15.52
2019-04-19T00:21:12.089Z,15.44
2019-04-19T00:21:44.497Z,15.46
2019-04-19T00:22:18.357Z,15.47
2019-04-19T00:22:48.103Z,15.4
2019-04-19T00:23:08.315Z,15.43
2019-04-19T00:23:36.523Z,15.42
2019-04-19T00:23:59.885Z,15.43
2019-04-19T00:24:28.788Z,15.42
2019-04-19T00:24:58.639Z,15.42
2019-04-19T00:25:27.929Z,15.44
2019-04-19T00:25:57.745Z,15.46
2019-04-19T00:26:25.959Z,15.43
2019-04-19T00:26:54.951Z,15.39
2019-04-19T00:27:24.676Z,15.43
2019-04-19T00:27:58.218Z,15.46
2019-04-19T00:28:34.090Z,15.43
2019-04-19T00:28:59.205Z,15.39
2019-04-19T00:29:37.432Z,15.49
2019-04-19T00:29:59.331Z,15.36
2019-04-19T00:30:32.429Z,15.4
2019-04-19T00:31:01.514Z,15.35
2019-04-19T00:31:37.097Z,15.49
2019-04-19T00:32:11.530Z,15.4
2019-04-19T00:32:37.785Z,15.43
2019-04-19T00:33:11.155Z,15.4
2019-04-19T00:33:34.368Z,15.36
2019-04-19T00:33:58.858Z,15.43
2019-04-19T00:34:27.422Z,15.33
2019-04-19T00:34:58.768Z,15.4
2019-04-19T00:35:26.408Z,15.43
2019-04-19T00:35:55.864Z,15.37
2019-04-19T00:36:25.523Z,15.36
2019-04-19T00:36:55.346Z,15.42
2019-04-19T00:37:22.597Z,15.39
2019-04-19T00:37:51.075Z,15.43
2019-04-19T00:38:38.091Z,15.43
2019-04-19T00:39:02.229Z,15.44
2019-04-19T00:39:35.490Z,15.36
2019-04-19T00:40:10.155Z,15.36
2019-04-19T00:40:34.920Z,15.29
2019-04-19T00:41:06.591Z,15.28
2019-04-19T00:41:35.489Z,15.33
2019-04-19T00:42:10.200Z,15.4
2019-04-19T00:42:39.823Z,15.39
2019-04-19T00:43:07.212Z,15.33
2019-04-19T00:43:38.791Z,15.46
2019-04-19T00:44:06.492Z,15.43
2019-04-19T00:44:45.237Z,15.47
2019-04-19T00:45:12.995Z,15.39
2019-04-19T00:45:41.560Z,15.43
2019-04-19T00:46:15.658Z,15.46
2019-04-19T00:46:42.051Z,15.44
2019-04-19T00:47:18.895Z,15.42
2019-04-19T00:47:42.413Z,15.43
2019-04-19T00:48:11.208Z,15.52
2019-04-19T00:48:45.723Z,15.44
2019-04-19T00:49:13.121Z,15.37
2019-04-19T00:49:44.424Z,15.46
2019-04-19T00:50:14.656Z,15.47
2019-04-19T00:50:46.826Z,15.36
2019-04-19T00:51:14.177Z,15.35
2019-04-19T00:51:48.858Z,15.37
2019-04-19T00:52:14.509Z,15.37
2019-04-19T00:52:49.251Z,15.42
2019-04-19T00:53:18.088Z,15.43
2019-04-19T00:53:43.365Z,15.31
2019-04-19T00:54:15.629Z,15.4
2019-04-19T00:54:47.974Z,15.35
2019-04-19T00:55:16.435Z,15.47
2019-04-19T00:55:48.371Z,15.37
2019-04-19T00:56:13.226Z,15.42
2019-04-19T00:56:46.536Z,15.43
2019-04-19T00:57:18.022Z,15.43
2019-04-19T00:57:45.497Z,15.4
2019-04-19T00:58:16.222Z,15.47
2019-04-19T00:58:48.154Z,15.44
2019-04-19T00:59:14.865Z,15.35
2019-04-19T00:59:47.112Z,15.43
2019-04-19T01:00:18.596Z,15.4
2019-04-19T01:00:44.670Z,15.42
2019-04-19T01:01:19.735Z,15.4
2019-04-19T01:01:46.508Z,15.44
2019-04-19T01:02:17.316Z,15.36
2019-04-19T01:02:51.121Z,15.31
2019-04-19T01:03:17.204Z,15.46
2019-04-19T01:03:47.745Z,15.43
2019-04-19T01:04:20.313Z,15.46
2019-04-19T01:04:45.231Z,15.33
2019-04-19T01:05:18.408Z,15.42
2019-04-19T01:05:53.864Z,15.43
2019-04-19T01:06:18.355Z,15.43
2019-04-19T01:06:50.721Z,15.4
2019-04-19T01:07:22.778Z,15.37
2019-04-19T01:07:47.476Z,15.31
2019-04-19T01:08:20.834Z,15.35
2019-04-19T01:08:54.130Z,15.42
2019-04-19T01:09:30.866Z,15.42
2019-04-19T01:10:05.923Z,15.39
2019-04-19T01:10:34.389Z,15.44
2019-04-19T01:11:05.964Z,15.31
2019-04-19T01:11:31.342Z,15.31
2019-04-19T01:12:02.981Z,15.4
2019-04-19T01:12:31.848Z,15.29
2019-04-19T01:13:03.970Z,15.37
2019-04-19T01:13:36.628Z,15.37
2019-04-19T01:14:06.045Z,15.36
2019-04-19T01:14:32.983Z,15.33
2019-04-19T01:15:05.461Z,15.42
2019-04-19T01:15:31.538Z,15.37
2019-04-19T01:16:04.980Z,15.47
2019-04-19T01:16:31.593Z,15.42
2019-04-19T01:17:07.319Z,15.46
2019-04-19T01:17:36.384Z,15.43
2019-04-19T01:18:11.474Z,15.4
2019-04-19T01:18:34.939Z,15.4
2019-04-19T01:19:01.351Z,15.43
2019-04-19T01:19:25.708Z,15.4
2019-04-19T01:19:58.420Z,15.43
2019-04-19T01:20:24.709Z,15.52
2019-04-19T01:20:52.706Z,15.42
2019-04-19T01:21:21.781Z,15.58
2019-04-19T01:21:51.167Z,15.47
2019-04-19T01:22:23.874Z,15.49
2019-04-19T01:22:58.459Z,15.37
2019-04-19T01:23:22.859Z,15.54
2019-04-19T01:23:58.261Z,15.44
2019-04-19T01:24:25.388Z,15.49
2019-04-19T01:24:54.449Z,15.51
2019-04-19T01:25:26.231Z,15.39
2019-04-19T01:26:00.621Z,15.47
2019-04-19T01:26:25.603Z,15.44
2019-04-19T01:26:56.241Z,15.4
2019-04-19T01:27:28.132Z,15.47
2019-04-19T01:27:57.493Z,15.43
2019-04-19T01:28:27.668Z,15.47
2019-04-19T01:29:02.303Z,15.47
2019-04-19T01:29:30.157Z,15.47
2019-04-19T01:29:59.764Z,15.43
2019-04-19T01:30:33.261Z,15.46
2019-04-19T01:30:58.933Z,15.4
2019-04-19T01:31:29.691Z,15.47
2019-04-19T01:32:05.042Z,15.55
2019-04-19T01:32:30.330Z,15.57
2019-04-19T01:33:02.710Z,15.57
2019-04-19T01:33:34.294Z,15.55
2019-04-19T01:34:02.749Z,15.64
2019-04-19T01:34:31.241Z,15.58
2019-04-19T01:35:07.020Z,15.59
2019-04-19T01:35:32.573Z,15.61
2019-04-19T01:36:01.997Z,15.68
2019-04-19T01:36:37.078Z,15.64
2019-04-19T01:37:03.285Z,15.65
2019-04-19T01:37:33.144Z,15.67
2019-04-19T01:38:05.824Z,15.62
2019-04-19T01:38:40.752Z,15.65
2019-04-19T01:39:17.419Z,15.68
2019-04-19T01:39:52.137Z,15.76
2019-04-19T01:40:20.908Z,15.7
2019-04-19T01:40:53.277Z,15.76
2019-04-19T01:41:20.412Z,15.72
2019-04-19T01:41:47.735Z,15.72
2019-04-19T01:42:24.446Z,15.7
2019-04-19T01:42:48.942Z,15.73
2019-04-19T01:43:27.673Z,15.7
2019-04-19T01:43:51.739Z,15.65
2019-04-19T01:44:27.500Z,15.76
2019-04-19T01:44:53.162Z,15.72
2019-04-19T01:45:19.868Z,15.7
2019-04-19T01:45:52.859Z,15.55
2019-04-19T01:46:26.287Z,15.55
2019-04-19T01:46:52.085Z,15.58
2019-04-19T01:47:30.238Z,15.52
2019-04-19T01:47:53.861Z,15.49
2019-04-19T01:48:27.999Z,15.46
2019-04-19T01:48:53.458Z,15.47
2019-04-19T01:49:19.987Z,15.49
2019-04-19T01:49:58.699Z,15.52
2019-04-19T01:50:20.917Z,15.44
2019-04-19T01:50:57.834Z,15.46
2019-04-19T01:51:26.647Z,15.4
2019-04-19T01:52:02.269Z,15.36
2019-04-19T01:52:40.580Z,15.24
2019-04-19T01:53:03.207Z,15.33
2019-04-19T01:53:27.875Z,15.36
2019-04-19T01:54:02.862Z,15.31
2019-04-19T01:54:29.384Z,15.28
2019-04-19T01:54:54.028Z,15.25
2019-04-19T01:55:23.180Z,15.27
2019-04-19T01:55:46.447Z,15.29
2019-04-19T01:56:16.931Z,15.33
2019-04-19T01:56:48.179Z,15.28
2019-04-19T01:57:14.718Z,15.24
2019-04-19T01:57:42.766Z,15.27
2019-04-19T01:58:15.905Z,15.25
2019-04-19T01:58:46.960Z,15.22
2019-04-19T01:59:13.603Z,15.29
2019-04-19T01:59:47.085Z,15.21
2019-04-19T02:00:18.380Z,15.27
2019-04-19T02:00:48.268Z,15.25
2019-04-19T02:01:17.538Z,15.25
2019-04-19T02:01:42.117Z,15.29
2019-04-19T02:02:15.864Z,15.25
2019-04-19T02:02:45.742Z,15.27
2019-04-19T02:03:12.611Z,15.28
2019-04-19T02:03:46.611Z,15.29
2019-04-19T02:04:19.391Z,15.27
2019-04-19T02:04:41.347Z,15.27
2019-04-19T02:05:15.000Z,15.31
2019-04-19T02:05:43.624Z,15.27
2019-04-19T02:06:11.066Z,15.35
2019-04-19T02:06:41.522Z,15.28
2019-04-19T02:07:12.391Z,15.27
2019-04-19T02:07:39.018Z,15.33
2019-04-19T02:08:11.042Z,15.39
2019-04-19T02:08:40.950Z,15.31
2019-04-19T02:09:07.571Z,15.35
2019-04-19T02:09:54.067Z,15.4
2019-04-19T02:10:18.245Z,15.35
2019-04-19T02:10:48.093Z,15.29
2019-04-19T02:11:20.721Z,15.27
2019-04-19T02:11:49.067Z,15.28
2019-04-19T02:12:22.052Z,15.35
2019-04-19T02:12:49.429Z,15.29
2019-04-19T02:13:19.539Z,15.4
2019-04-19T02:13:53.054Z,15.29
2019-04-19T02:14:19.067Z,15.29
2019-04-19T02:14:50.333Z,15.4
2019-04-19T02:15:24.465Z,15.4
2019-04-19T02:15:48.490Z,15.35
2019-04-19T02:16:18.361Z,15.46
2019-04-19T02:16:52.385Z,15.44
2019-04-19T02:17:16.801Z,15.35
2019-04-19T02:17:48.122Z,15.35
2019-04-19T02:18:19.509Z,15.44
2019-04-19T02:18:43.133Z,15.4
2019-04-19T02:19:16.160Z,15.43
2019-04-19T02:19:47.845Z,15.37
2019-04-19T02:20:14.000Z,15.47
2019-04-19T02:20:47.386Z,15.43
2019-04-19T02:21:19.654Z,15.43
2019-04-19T02:21:46.975Z,15.46
2019-04-19T02:22:20.797Z,15.4
2019-04-19T02:22:48.485Z,15.33
2019-04-19T02:23:17.572Z,15.36
2019-04-19T02:23:51.176Z,15.29
2019-04-19T02:24:17.010Z,15.37
2019-04-19T02:24:50.866Z,15.39
2019-04-19T02:25:21.712Z,15.43
2019-04-19T02:25:46.123Z,15.43
2019-04-19T02:26:18.792Z,15.31
2019-04-19T02:26:53.806Z,15.35
2019-04-19T02:27:18.642Z,15.36
2019-04-19T02:27:49.952Z,15.42
2019-04-19T02:28:24.351Z,15.4
2019-04-19T02:28:49.296Z,15.36
2019-04-19T02:29:21.459Z,15.43
2019-04-19T02:29:56.312Z,15.4
2019-04-19T02:30:33.635Z,15.36
2019-04-19T02:31:10.271Z,15.42
2019-04-19T02:31:43.179Z,15.46
2019-04-19T02:32:40.662Z,15.4
2019-04-19T02:33:14.730Z,15.47
2019-04-19T02:33:52.577Z,15.43
2019-04-19T02:34:28.638Z,15.39
2019-04-19T02:35:05.850Z,15.33
2019-04-19T02:35:15.163Z,15.44
2019-04-19T02:35:50.591Z,15.42
2019-04-19T02:36:24.664Z,15.46
2019-04-19T02:37:00.241Z,15.49
2019-04-19T02:38:28.595Z,15.44
2019-04-19T02:39:04.912Z,15.55
2019-04-19T02:39:28.513Z,15.47
2019-04-19T02:41:00.783Z,15.37
2019-04-19T02:41:31.665Z,15.4
2019-04-19T02:42:15.749Z,15.4
2019-04-19T02:43:06.317Z,15.46
2019-04-19T02:43:43.042Z,15.43
2019-04-19T02:44:43.099Z,15.42
2019-04-19T02:45:11.270Z,15.47
2019-04-19T02:45:35.745Z,15.52
2019-04-19T02:46:22.742Z,15.58
2019-04-19T02:47:17.584Z,15.52
2019-04-19T02:48:15.835Z,15.44
2019-04-19T02:48:53.525Z,15.44
2019-04-19T02:49:19.826Z,15.47
2019-04-19T02:50:42.755Z,15.42
2019-04-19T02:51:07.470Z,15.42
2019-04-19T02:52:32.991Z,15.46
2019-04-19T02:52:46.222Z,15.43
2019-04-19T02:53:22.184Z,15.46
2019-04-19T02:53:53.693Z,15.43
2019-04-19T02:54:24.890Z,15.4
2019-04-19T02:54:57.980Z,15.43
2019-04-19T02:55:18.656Z,15.4
2019-04-19T02:56:02.182Z,15.35
2019-04-19T02:56:44.255Z,15.46
2019-04-19T02:57:01.858Z,15.35
2019-04-19T02:57:32.599Z,15.46
2019-04-19T02:57:58.682Z,15.42
2019-04-19T02:58:32.112Z,15.43
2019-04-19T02:59:08.620Z,15.43
2019-04-19T02:59:38.438Z,15.39
2019-04-19T03:00:12.365Z,15.4
2019-04-19T03:01:10.866Z,15.35
2019-04-19T03:02:13.746Z,15.29
2019-04-19T03:02:52.397Z,15.27
2019-04-19T03:03:05.630Z,15.31
2019-04-19T03:04:04.733Z,15.35
2019-04-19T03:04:23.817Z,15.29
2019-04-19T03:04:52.744Z,15.28
2019-04-19T03:05:36.364Z,15.28
2019-04-19T03:06:03.725Z,15.28
2019-04-19T03:06:30.437Z,15.28
2019-04-19T03:06:54.231Z,15.28
2019-04-19T03:07:21.574Z,15.28
2019-04-19T03:07:50.320Z,15.33
2019-04-19T03:08:20.575Z,15.24
2019-04-19T03:08:50.203Z,15.22
2019-04-19T03:09:17.558Z,15.17
2019-04-19T03:09:48.953Z,15.1
2019-04-19T03:10:21.003Z,15.11
2019-04-19T03:11:00.686Z,15.06
2019-04-19T03:11:34.972Z,15.06
2019-04-19T03:12:00.456Z,15.03
2019-04-19T03:13:07.854Z,15.02
2019-04-19T03:13:35.955Z,15.04
2019-04-19T03:14:02.877Z,15
2019-04-19T03:14:38.719Z,14.92
2019-04-19T03:15:05.207Z,14.99
2019-04-19T03:15:43.850Z,14.92
2019-04-19T03:16:09.593Z,14.88
2019-04-19T03:16:43.323Z,14.84
2019-04-19T03:17:09.846Z,14.78
2019-04-19T03:17:38.436Z,14.7
2019-04-19T03:18:19.101Z,14.7
2019-04-19T03:18:51.646Z,14.85
2019-04-19T03:19:05.702Z,14.94
2019-04-19T03:19:43.770Z,14.89
2019-04-19T03:20:10.688Z,14.85
2019-04-19T03:20:38.276Z,14.79
2019-04-19T03:21:11.318Z,14.91
2019-04-19T03:21:41.604Z,14.88
2019-04-19T03:22:20.143Z,14.85
2019-04-19T03:22:49.250Z,14.91
2019-04-19T03:23:17.436Z,14.96
2019-04-19T03:23:47.872Z,14.96
2019-04-19T03:24:14.017Z,14.85
2019-04-19T03:24:51.959Z,14.91
2019-04-19T03:25:18.099Z,14.86
2019-04-19T03:25:47.783Z,14.89
2019-04-19T03:26:19.464Z,14.88
2019-04-19T03:26:47.981Z,14.82
2019-04-19T03:27:15.187Z,14.84
2019-04-19T03:27:51.931Z,14.85
2019-04-19T03:28:18.220Z,14.88
2019-04-19T03:28:43.294Z,14.88
2019-04-19T03:29:16.268Z,14.82
2019-04-19T03:29:43.548Z,14.85
2019-04-19T03:30:22.963Z,14.84
2019-04-19T03:31:07.948Z,14.91
2019-04-19T03:31:40.652Z,14.97
2019-04-19T03:32:21.606Z,14.91
2019-04-19T03:33:16.895Z,14.85
2019-04-19T03:33:41.646Z,14.79
2019-04-19T03:34:11.113Z,14.72
2019-04-19T03:34:50.172Z,14.77
2019-04-19T03:35:03.504Z,14.77
2019-04-19T03:35:43.161Z,14.72
2019-04-19T03:36:05.125Z,14.72
2019-04-19T03:36:36.363Z,14.84
2019-04-19T03:37:04.023Z,14.81
2019-04-19T03:37:37.851Z,14.86
2019-04-19T03:38:09.961Z,14.72
2019-04-19T03:38:38.632Z,14.79
2019-04-19T03:39:17.624Z,14.78
2019-04-19T03:39:43.822Z,14.79
2019-04-19T03:40:27.975Z,14.77
2019-04-19T03:40:55.758Z,14.77
2019-04-19T03:41:18.308Z,14.69
2019-04-19T03:42:00.857Z,14.65
2019-04-19T03:42:11.501Z,14.68
2019-04-19T03:42:44.338Z,14.69
2019-04-19T03:43:18.094Z,14.66
2019-04-19T03:43:47.108Z,14.55
2019-04-19T03:44:15.501Z,14.6
2019-04-19T03:44:40.031Z,14.7
2019-04-19T03:45:12.645Z,14.69
2019-04-19T03:45:49.850Z,14.72
2019-04-19T03:46:15.804Z,14.66
2019-04-19T03:46:52.023Z,14.65
2019-04-19T03:47:37.085Z,14.63
2019-04-19T03:47:49.929Z,14.69
2019-04-19T03:48:20.768Z,14.66
2019-04-19T03:48:47.402Z,14.7
2019-04-19T03:49:30.150Z,14.65
2019-04-19T03:49:52.067Z,14.62
2019-04-19T03:50:19.710Z,14.69
2019-04-19T03:50:54.336Z,14.69
2019-04-19T03:51:23.188Z,14.68
2019-04-19T03:52:03.034Z,14.72
2019-04-19T03:52:25.763Z,14.73
2019-04-19T03:52:53.517Z,14.79
2019-04-19T03:53:30.708Z,14.73
2019-04-19T03:53:54.024Z,14.72
2019-04-19T03:54:23.177Z,14.85
2019-04-19T03:54:53.559Z,14.77
2019-04-19T03:55:23.751Z,14.77
2019-04-19T03:56:01.451Z,14.72
2019-04-19T03:56:26.170Z,14.73
2019-04-19T03:56:54.668Z,14.69
2019-04-19T03:57:18.244Z,14.72
2019-04-19T03:57:45.461Z,14.66
2019-04-19T03:58:14.862Z,14.72
2019-04-19T03:58:39.758Z,14.65
2019-04-19T03:59:09.820Z,14.68
2019-04-19T03:59:39.326Z,14.66
2019-04-19T04:00:07.440Z,14.79
2019-04-19T04:00:36.352Z,14.81
2019-04-19T04:01:06.533Z,14.77
2019-04-19T04:01:41.204Z,14.69
2019-04-19T04:02:07.701Z,14.72
2019-04-19T04:02:41.406Z,14.63
2019-04-19T04:03:16.107Z,14.66
2019-04-19T04:03:42.666Z,14.66
2019-04-19T04:04:16.327Z,14.77
2019-04-19T04:04:43.573Z,14.63
2019-04-19T04:05:12.936Z,14.65
2019-04-19T04:05:43.957Z,14.68
2019-04-19T04:06:12.313Z,14.72
2019-04-19T04:06:40.982Z,14.78
2019-04-19T04:07:13.925Z,14.7
2019-04-19T04:07:39.247Z,14.6
2019-04-19T04:08:14.549Z,14.63
2019-04-19T04:08:47.997Z,14.59
2019-04-19T04:09:11.304Z,14.45
2019-04-19T04:09:45.590Z,14.53
2019-04-19T04:10:13.882Z,14.54
2019-04-19T04:10:44.044Z,14.51
2019-04-19T04:11:14.994Z,14.44
2019-04-19T04:11:50.672Z,14.48
2019-04-19T04:12:24.711Z,14.45
2019-04-19T04:12:49.208Z,14.45
2019-04-19T04:13:25.062Z,14.48
2019-04-19T04:13:56.269Z,14.54
2019-04-19T04:14:24.452Z,14.48
2019-04-19T04:14:56.480Z,14.5
2019-04-19T04:15:24.537Z,14.58
2019-04-19T04:15:56.587Z,14.45
2019-04-19T04:16:23.850Z,14.37
2019-04-19T04:16:48.382Z,14.43
2019-04-19T04:17:14.483Z,14.3
2019-04-19T04:17:45.674Z,14.32
2019-04-19T04:18:13.299Z,14.32
2019-04-19T04:18:42.798Z,14.3
2019-04-19T04:19:12.445Z,14.35
2019-04-19T04:19:42.460Z,14.37
2019-04-19T04:20:13.457Z,14.33
2019-04-19T04:20:47.511Z,14.33
2019-04-19T04:21:11.067Z,14.32
2019-04-19T04:21:45.153Z,14.36
2019-04-19T04:22:17.980Z,14.36
2019-04-19T04:22:41.920Z,14.33
2019-04-19T04:23:14.159Z,14.3
2019-04-19T04:23:42.921Z,14.28
2019-04-19T04:24:18.946Z,14.32
2019-04-19T04:24:51.921Z,14.33
2019-04-19T04:25:14.982Z,14.32
2019-04-19T04:25:48.311Z,14.29
2019-04-19T04:26:12.881Z,14.33
2019-04-19T04:26:48.262Z,14.28
2019-04-19T04:27:14.457Z,14.3
2019-04-19T04:27:49.377Z,14.26
2019-04-19T04:28:23.393Z,14.32
2019-04-19T04:28:48.067Z,14.28
2019-04-19T04:29:17.137Z,14.3
2019-04-19T04:29:44.226Z,14.32
2019-04-19T04:30:17.265Z,14.22
2019-04-19T04:30:51.539Z,14.23
2019-04-19T04:31:19.186Z,14.23
2019-04-19T04:31:47.749Z,14.14
2019-04-19T04:32:17.722Z,14.17
2019-04-19T04:32:53.457Z,14.12
2019-04-19T04:33:26.154Z,14.17
2019-04-19T04:33:52.324Z,14.25
2019-04-19T04:34:26.785Z,14.26
2019-04-19T04:34:51.928Z,14.15
2019-04-19T04:35:30.177Z,14.14
2019-04-19T04:35:56.919Z,14.1
2019-04-19T04:36:36.044Z,14.14
2019-04-19T04:37:01.551Z,14.08
2019-04-19T04:37:29.157Z,14.08
2019-04-19T04:37:58.000Z,14.11
2019-04-19T04:38:20.573Z,14.11
2019-04-19T04:38:46.169Z,14.12
2019-04-19T04:39:15.467Z,14.1
2019-04-19T04:39:43.066Z,14.08
2019-04-19T04:40:12.585Z,13.97
2019-04-19T04:40:42.126Z,14.07
2019-04-19T04:41:17.882Z,14.12
2019-04-19T04:41:44.106Z,14.03
2019-04-19T04:42:22.072Z,14.1
2019-04-19T04:43:01.232Z,13.99
2019-04-19T04:43:28.900Z,13.99
2019-04-19T04:44:03.682Z,14.03
2019-04-19T04:44:32.873Z,13.97
2019-04-19T04:45:08.878Z,14.08
2019-04-19T04:45:32.179Z,14.1
2019-04-19T04:46:08.607Z,14.11
2019-04-19T04:46:38.549Z,14.11
2019-04-19T04:47:07.324Z,14.12
2019-04-19T04:47:35.240Z,14.11
2019-04-19T04:47:59.735Z,14.08
2019-04-19T04:48:37.313Z,14.07
2019-04-19T04:49:03.798Z,14.12
2019-04-19T04:49:41.200Z,14.12
2019-04-19T04:50:05.097Z,14.14
2019-04-19T04:50:44.016Z,14.17
2019-04-19T04:51:19.404Z,14.08
2019-04-19T04:51:34.493Z,14.12
2019-04-19T04:52:01.205Z,14.1
2019-04-19T04:52:26.994Z,14.15
2019-04-19T04:52:49.729Z,14.14
2019-04-19T04:53:19.894Z,14.1
2019-04-19T04:53:49.111Z,14.11
2019-04-19T04:54:18.561Z,14.12
2019-04-19T04:54:48.164Z,14.1
2019-04-19T04:55:15.626Z,14.14
2019-04-19T04:55:50.649Z,14.15
2019-04-19T04:56:17.100Z,14.18
2019-04-19T04:56:53.848Z,14.11
2019-04-19T04:57:18.273Z,14.15
2019-04-19T04:57:54.117Z,14.17
2019-04-19T04:58:25.028Z,13.97
2019-04-19T04:58:49.494Z,14.04
2019-04-19T04:59:22.204Z,14.15
2019-04-19T04:59:53.580Z,14.15
2019-04-19T05:00:28.153Z,14.17
2019-04-19T05:00:56.059Z,14.2
2019-04-19T05:01:28.834Z,14.22
2019-04-19T05:01:58.408Z,14.23
2019-04-19T05:02:31.231Z,14.36
2019-04-19T05:03:03.530Z,14.36
2019-04-19T05:03:38.611Z,14.33
2019-04-19T05:04:06.788Z,14.28
2019-04-19T05:04:32.921Z,14.28
2019-04-19T05:05:09.850Z,14.23
2019-04-19T05:05:38.043Z,14.32
2019-04-19T05:06:10.965Z,14.3
2019-04-19T05:06:33.284Z,14.37
2019-04-19T05:07:09.580Z,14.35
2019-04-19T05:07:38.904Z,14.4
2019-04-19T05:08:13.799Z,14.36
2019-04-19T05:08:44.786Z,14.33
2019-04-19T05:09:07.964Z,14.32
2019-04-19T05:09:44.463Z,14.36
2019-04-19T05:10:13.610Z,14.3
2019-04-19T05:10:39.245Z,14.33
2019-04-19T05:11:15.830Z,14.22
2019-04-19T05:11:41.830Z,14.3
2019-04-19T05:12:17.916Z,14.36
2019-04-19T05:12:58.757Z,14.35
2019-04-19T05:13:18.930Z,14.4
2019-04-19T05:13:43.165Z,14.47
2019-04-19T05:14:16.564Z,14.48
2019-04-19T05:14:44.912Z,14.45
2019-04-19T05:15:19.739Z,14.44
2019-04-19T05:15:47.739Z,14.47
2019-04-19T05:16:26.250Z,14.33
2019-04-19T05:17:31.992Z,14.33
2019-04-19T05:17:56.633Z,14.35
2019-04-19T05:18:24.707Z,14.35
2019-04-19T05:18:49.392Z,14.36
2019-04-19T05:19:22.176Z,14.15
2019-04-19T05:19:56.159Z,14.23
2019-04-19T05:20:22.235Z,14.18
2019-04-19T05:20:47.919Z,14.14
2019-04-19T05:21:21.233Z,14.03
2019-04-19T05:21:50.771Z,14
2019-04-19T05:22:17.860Z,14.1
2019-04-19T05:22:53.388Z,14.17
2019-04-19T05:23:21.988Z,14.1
2019-04-19T05:23:58.842Z,14.08
2019-04-19T05:24:25.183Z,14.12
2019-04-19T05:25:03.545Z,13.97
2019-04-19T05:25:30.623Z,14.15
2019-04-19T05:26:07.979Z,13.97
2019-04-19T05:27:03.585Z,13.87
2019-04-19T05:27:32.673Z,13.95
2019-04-19T05:28:00.511Z,13.85
2019-04-19T05:28:27.162Z,13.93
2019-04-19T05:28:59.467Z,13.89
2019-04-19T05:29:22.610Z,13.93
2019-04-19T05:29:46.211Z,13.97
2019-04-19T05:30:13.209Z,13.95
2019-04-19T05:30:49.654Z,13.89
2019-04-19T05:31:22.452Z,13.96
2019-04-19T05:31:47.849Z,14
2019-04-19T05:32:19.284Z,13.9
2019-04-19T05:32:50.914Z,14.04
2019-04-19T05:33:22.595Z,13.95
2019-04-19T05:34:08.035Z,13.95
2019-04-19T05:34:31.939Z,13.85
2019-04-19T05:34:59.704Z,13.89
2019-04-19T05:35:25.757Z,13.9
2019-04-19T05:36:02.681Z,13.87
2019-04-19T05:36:34.180Z,13.9
2019-04-19T05:37:02.349Z,13.81
2019-04-19T05:37:34.961Z,13.9
2019-04-19T05:38:02.719Z,13.85
2019-04-19T05:38:37.531Z,13.83
2019-04-19T05:39:07.647Z,13.83
2019-04-19T05:39:36.864Z,13.86
2019-04-19T05:40:04.648Z,13.83
2019-04-19T05:40:32.433Z,13.95
2019-04-19T05:40:58.941Z,13.97
2019-04-19T05:41:29.565Z,14.03
2019-04-19T05:41:59.541Z,14.07
2019-04-19T05:43:02.081Z,14.15
2019-04-19T05:43:51.121Z,14.12
2019-04-19T05:44:12.111Z,14.22
2019-04-19T05:44:38.343Z,14.22
2019-04-19T05:45:20.206Z,14.3
2019-04-19T05:45:42.565Z,14.22
2019-04-19T05:46:15.122Z,14.29
2019-04-19T05:46:41.483Z,14.28
2019-04-19T05:47:08.739Z,14.11
2019-04-19T05:47:33.124Z,14.14
2019-04-19T05:48:00.211Z,14.14
2019-04-19T05:48:33.170Z,14.22
2019-04-19T05:49:07.633Z,14.2
2019-04-19T05:49:37.669Z,14.23
2019-04-19T05:50:16.759Z,14.18
2019-04-19T05:50:39.092Z,14.15
2019-04-19T05:51:19.375Z,14.22
2019-04-19T05:51:47.111Z,14.15
2019-04-19T05:52:17.178Z,14.1
2019-04-19T05:52:42.115Z,14.08
2019-04-19T05:53:07.380Z,14.14
2019-04-19T05:53:32.929Z,14.1
2019-04-19T05:54:00.546Z,14.17
2019-04-19T05:54:25.737Z,14.1
2019-04-19T05:54:53.809Z,14.08
2019-04-19T05:55:23.923Z,14.14
2019-04-19T05:55:52.561Z,14.12
2019-04-19T05:56:22.064Z,14.11
2019-04-19T05:56:55.445Z,14.2
2019-04-19T05:57:39.706Z,14.22
2019-04-19T05:58:05.509Z,14.2
2019-04-19T05:58:32.480Z,14.2
2019-04-19T05:59:03.190Z,14.25
2019-04-19T05:59:37.623Z,14.22
2019-04-19T06:00:01.562Z,14.07
2019-04-19T06:00:37.452Z,14.07
2019-04-19T06:01:01.672Z,14.22
2019-04-19T06:01:40.993Z,14.22
2019-04-19T06:02:04.875Z,14.14
2019-04-19T06:02:31.238Z,14.2
2019-04-19T06:03:02.627Z,14.22
2019-04-19T06:03:30.116Z,14.22
2019-04-19T06:04:11.149Z,14.3
2019-04-19T06:04:40.749Z,14.35
2019-04-19T06:05:14.590Z,14.32
2019-04-19T06:05:48.343Z,14.47
2019-04-19T06:06:13.934Z,14.4
2019-04-19T06:06:47.401Z,14.43
2019-04-19T06:07:16.852Z,14.28
2019-04-19T06:07:42.459Z,14.37
2019-04-19T06:08:07.703Z,14.32
2019-04-19T06:08:32.876Z,14.44
2019-04-19T06:09:00.307Z,14.5
2019-04-19T06:09:28.837Z,14.5
2019-04-19T06:09:58.083Z,14.48
2019-04-19T06:10:32.838Z,14.55
2019-04-19T06:10:58.291Z,14.59
2019-04-19T06:11:29.543Z,14.66
2019-04-19T06:11:58.009Z,14.63
2019-04-19T06:12:31.422Z,14.58
2019-04-19T06:13:04.140Z,14.62
2019-04-19T06:13:29.734Z,14.58
2019-04-19T06:14:16.684Z,14.53
2019-04-19T06:14:56.621Z,14.48
2019-04-19T06:15:21.578Z,14.5
2019-04-19T06:15:53.764Z,14.53
2019-04-19T06:16:20.704Z,14.53
2019-04-19T06:16:46.388Z,14.51
2019-04-19T06:17:16.318Z,14.66
2019-04-19T06:17:50.649Z,14.68
2019-04-19T06:18:16.226Z,14.54
2019-04-19T06:18:45.921Z,14.62
2019-04-19T06:19:27.443Z,14.66
2019-04-19T06:19:50.283Z,14.62
2019-04-19T06:20:20.235Z,14.68
2019-04-19T06:20:52.888Z,14.66
2019-04-19T06:21:27.222Z,14.7
2019-04-19T06:21:52.994Z,14.65
2019-04-19T06:22:26.692Z,14.73
2019-04-19T06:22:57.631Z,14.82
2019-04-19T06:23:27.139Z,14.78
2019-04-19T06:24:05.333Z,14.77
2019-04-19T06:24:31.331Z,14.72
2019-04-19T06:25:00.293Z,14.69
2019-04-19T06:25:32.670Z,14.84
2019-04-19T06:26:11.057Z,14.91
2019-04-19T06:27:43.237Z,14.91
2019-04-19T06:28:12.434Z,14.92
2019-04-19T06:28:43.479Z,14.96
2019-04-19T06:29:22.206Z,15.04
2019-04-19T06:29:43.484Z,15.04
2019-04-19T06:30:09.970Z,15
2019-04-19T06:30:36.027Z,15.04
2019-04-19T06:31:12.408Z,15.04
2019-04-19T06:31:39.283Z,15
2019-04-19T06:32:14.990Z,14.92
2019-04-19T06:32:44.583Z,14.97
2019-04-19T06:33:10.616Z,14.99
2019-04-19T06:33:41.311Z,15.06
2019-04-19T06:34:15.668Z,15.06
2019-04-19T06:34:44.045Z,15
2019-04-19T06:35:09.754Z,15.02
2019-04-19T06:35:38.278Z,14.97
2019-04-19T06:36:03.901Z,15.07
2019-04-19T06:36:31.289Z,15.06
2019-04-19T06:37:09.967Z,15.09
2019-04-19T06:37:35.825Z,15.11
2019-04-19T06:38:03.422Z,15.21
2019-04-19T06:38:33.003Z,15.25
2019-04-19T06:39:03.507Z,15.24
2019-04-19T06:39:33.117Z,15.29
2019-04-19T06:40:12.501Z,15.33
2019-04-19T06:40:36.060Z,15.24
2019-04-19T06:41:10.633Z,15.33
2019-04-19T06:41:40.618Z,15.39
2019-04-19T06:42:10.682Z,15.49
2019-04-19T06:42:46.057Z,15.46
2019-04-19T06:43:15.505Z,15.46
2019-04-19T06:43:51.634Z,15.4